sensor_id;sensor_type;location;lat;lon;timestamp;temperature;humidity
22674;DHT22;11504;43.334;21.918;2022-10-15T00:04:02;13.3;100.0
22674;DHT22;11504;43.334;21.918;2022-10-15T00:08:41;13.3;100.0
22674;DHT22;11504;43.334;21.918;2022-10-15T00:13:21;13.1;100.0
22674;DHT22;11504;43.334;21.918;2022-10-15T00:17:58;13.1;100.0
22674;DHT22;11504;43.334;21.918;2022-10-15T00:22:35;13.0;100.0
22674;DHT22;11504;43.334;21.918;2022-10-15T00:27:14;13.0;100.0
22674;DHT22;11504;43.334;21.918;2022-10-15T00:31:52;12.8;100.0
22674;DHT22;11504;43.334;21.918;2022-10-15T00:36:31;12.8;100.0
22674;DHT22;11504;43.334;21.918;2022-10-15T00:41:15;12.8;100.0
22674;DHT22;11504;43.334;21.918;2022-10-15T00:46:02;12.6;100.0
22674;DHT22;11504;43.334;21.918;2022-10-15T00:50:52;12.6;100.0
22674;DHT22;11504;43.334;21.918;2022-10-15T00:55:32;12.5;100.0
22674;DHT22;11504;43.334;21.918;2022-10-15T01:00:19;12.5;100.0
22674;DHT22;11504;43.334;21.918;2022-10-15T01:04:57;12.5;100.0
22674;DHT22;11504;43.334;21.918;2022-10-15T01:09:34;12.5;100.0
22674;DHT22;11504;43.334;21.918;2022-10-15T01:14:24;12.5;100.0
22674;DHT22;11504;43.334;21.918;2022-10-15T01:19:56;12.5;100.0
22674;DHT22;11504;43.334;21.918;2022-10-15T01:25:58;12.4;100.0
22674;DHT22;11504;43.334;21.918;2022-10-15T01:32:06;12.3;100.0
22674;DHT22;11504;43.334;21.918;2022-10-15T01:37:08;12.3;100.0
22674;DHT22;11504;43.334;21.918;2022-10-15T01:42:24;12.2;100.0
22674;DHT22;11504;43.334;21.918;2022-10-15T01:47:35;12.2;100.0
22674;DHT22;11504;43.334;21.918;2022-10-15T01:52:35;12.0;100.0
22674;DHT22;11504;43.334;21.918;2022-10-15T01:57:23;12.0;100.0
22674;DHT22;11504;43.334;21.918;2022-10-15T02:02:11;11.8;100.0
22674;DHT22;11504;43.334;21.918;2022-10-15T02:06:53;11.8;100.0
22674;DHT22;11504;43.334;21.918;2022-10-15T02:11:52;11.6;100.0
22674;DHT22;11504;43.334;21.918;2022-10-15T02:16:55;11.6;100.0
22674;DHT22;11504;43.334;21.918;2022-10-15T02:21:46;11.4;100.0
22674;DHT22;11504;43.334;21.918;2022-10-15T02:26:43;11.4;100.0
22674;DHT22;11504;43.334;21.918;2022-10-15T02:31:25;11.4;100.0
22674;DHT22;11504;43.334;21.918;2022-10-15T02:36:13;11.1;100.0
22674;DHT22;11504;43.334;21.918;2022-10-15T02:40:54;11.1;100.0
22674;DHT22;11504;43.334;21.918;2022-10-15T02:45:32;11.0;100.0
22674;DHT22;11504;43.334;21.918;2022-10-15T02:50:09;11.0;100.0
22674;DHT22;11504;43.334;21.918;2022-10-15T02:54:45;11.0;100.0
22674;DHT22;11504;43.334;21.918;2022-10-15T02:59:22;11.0;100.0
22674;DHT22;11504;43.334;21.918;2022-10-15T03:04:00;11.0;100.0
22674;DHT22;11504;43.334;21.918;2022-10-15T03:08:38;11.0;100.0
22674;DHT22;11504;43.334;21.918;2022-10-15T03:13:15;11.0;100.0
22674;DHT22;11504;43.334;21.918;2022-10-15T03:17:52;11.0;100.0
22674;DHT22;11504;43.334;21.918;2022-10-15T03:22:29;11.0;100.0
22674;DHT22;11504;43.334;21.918;2022-10-15T03:27:05;11.0;100.0
22674;DHT22;11504;43.334;21.918;2022-10-15T03:31:43;11.0;100.0
22674;DHT22;11504;43.334;21.918;2022-10-15T03:36:19;11.0;100.0
22674;DHT22;11504;43.334;21.918;2022-10-15T03:40:56;11.0;100.0
22674;DHT22;11504;43.334;21.918;2022-10-15T03:45:33;11.0;100.0
22674;DHT22;11504;43.334;21.918;2022-10-15T03:50:10;11.0;100.0
22674;DHT22;11504;43.334;21.918;2022-10-15T03:54:48;11.0;100.0
22674;DHT22;11504;43.334;21.918;2022-10-15T03:59:25;11.0;100.0
22674;DHT22;11504;43.334;21.918;2022-10-15T04:04:02;10.8;100.0
22674;DHT22;11504;43.334;21.918;2022-10-15T04:08:40;10.8;100.0
22674;DHT22;11504;43.334;21.918;2022-10-15T04:13:17;10.7;100.0
22674;DHT22;11504;43.334;21.918;2022-10-15T04:17:54;10.7;100.0
22674;DHT22;11504;43.334;21.918;2022-10-15T04:22:30;10.7;100.0
22674;DHT22;11504;43.334;21.918;2022-10-15T04:27:07;10.7;100.0
22674;DHT22;11504;43.334;21.918;2022-10-15T04:31:45;10.7;100.0
22674;DHT22;11504;43.334;21.918;2022-10-15T04:36:22;10.7;100.0
22674;DHT22;11504;43.334;21.918;2022-10-15T04:41:02;10.7;100.0
22674;DHT22;11504;43.334;21.918;2022-10-15T04:45:47;10.6;100.0
22674;DHT22;11504;43.334;21.918;2022-10-15T04:50:23;10.6;100.0
22674;DHT22;11504;43.334;21.918;2022-10-15T04:55:00;10.5;100.0
22674;DHT22;11504;43.334;21.918;2022-10-15T04:59:36;10.5;100.0
22674;DHT22;11504;43.334;21.918;2022-10-15T05:04:13;10.6;100.0
22674;DHT22;11504;43.334;21.918;2022-10-15T05:08:50;10.6;100.0
22674;DHT22;11504;43.334;21.918;2022-10-15T05:13:27;10.7;100.0
22674;DHT22;11504;43.334;21.918;2022-10-15T05:18:07;10.7;100.0
22674;DHT22;11504;43.334;21.918;2022-10-15T05:22:43;11.6;100.0
22674;DHT22;11504;43.334;21.918;2022-10-15T05:27:20;11.6;100.0
22674;DHT22;11504;43.334;21.918;2022-10-15T05:31:57;12.6;100.0
22674;DHT22;11504;43.334;21.918;2022-10-15T05:36:34;12.6;100.0
22674;DHT22;11504;43.334;21.918;2022-10-15T05:41:11;12.6;100.0
22674;DHT22;11504;43.334;21.918;2022-10-15T05:45:52;15.2;100.0
22674;DHT22;11504;43.334;21.918;2022-10-15T05:50:30;15.2;100.0
22674;DHT22;11504;43.334;21.918;2022-10-15T05:55:08;17.7;100.0
22674;DHT22;11504;43.334;21.918;2022-10-15T05:59:45;17.7;100.0
22674;DHT22;11504;43.334;21.918;2022-10-15T06:04:21;19.2;100.0
22674;DHT22;11504;43.334;21.918;2022-10-15T06:08:58;19.2;100.0
22674;DHT22;11504;43.334;21.918;2022-10-15T06:13:37;20.6;100.0
22674;DHT22;11504;43.334;21.918;2022-10-15T06:18:18;20.6;100.0
22674;DHT22;11504;43.334;21.918;2022-10-15T06:22:56;21.0;100.0
22674;DHT22;11504;43.334;21.918;2022-10-15T06:27:35;21.0;100.0
22674;DHT22;11504;43.334;21.918;2022-10-15T06:32:12;21.4;100.0
22674;DHT22;11504;43.334;21.918;2022-10-15T06:36:49;21.4;100.0
22674;DHT22;11504;43.334;21.918;2022-10-15T06:41:26;21.4;100.0
22674;DHT22;11504;43.334;21.918;2022-10-15T06:46:04;21.5;100.0
22674;DHT22;11504;43.334;21.918;2022-10-15T06:50:41;21.5;100.0
22674;DHT22;11504;43.334;21.918;2022-10-15T06:55:19;21.7;100.0
22674;DHT22;11504;43.334;21.918;2022-10-15T06:59:56;21.7;100.0
22674;DHT22;11504;43.334;21.918;2022-10-15T07:04:33;22.2;100.0
22674;DHT22;11504;43.334;21.918;2022-10-15T07:09:09;22.2;100.0
22674;DHT22;11504;43.334;21.918;2022-10-15T07:13:46;22.6;100.0
22674;DHT22;11504;43.334;21.918;2022-10-15T07:18:23;22.6;100.0
22674;DHT22;11504;43.334;21.918;2022-10-15T07:23:00;23.0;100.0
22674;DHT22;11504;43.334;21.918;2022-10-15T07:27:38;23.0;100.0
22674;DHT22;11504;43.334;21.918;2022-10-15T07:32:15;23.4;100.0
22674;DHT22;11504;43.334;21.918;2022-10-15T07:36:52;23.4;100.0
22674;DHT22;11504;43.334;21.918;2022-10-15T07:41:29;23.4;100.0
22674;DHT22;11504;43.334;21.918;2022-10-15T07:46:06;23.8;100.0
22674;DHT22;11504;43.334;21.918;2022-10-15T07:50:42;23.8;100.0
22674;DHT22;11504;43.334;21.918;2022-10-15T07:55:18;24.2;100.0
22674;DHT22;11504;43.334;21.918;2022-10-15T07:59:55;24.2;100.0
22674;DHT22;11504;43.334;21.918;2022-10-15T08:04:32;24.6;100.0
22674;DHT22;11504;43.334;21.918;2022-10-15T08:09:09;24.6;100.0
22674;DHT22;11504;43.334;21.918;2022-10-15T08:13:46;25.0;100.0
22674;DHT22;11504;43.334;21.918;2022-10-15T08:18:23;25.0;100.0
22674;DHT22;11504;43.334;21.918;2022-10-15T08:23:00;25.2;100.0
22674;DHT22;11504;43.334;21.918;2022-10-15T08:27:37;25.2;100.0
22674;DHT22;11504;43.334;21.918;2022-10-15T08:32:14;25.4;100.0
22674;DHT22;11504;43.334;21.918;2022-10-15T08:36:51;25.4;100.0
22674;DHT22;11504;43.334;21.918;2022-10-15T08:41:31;25.4;100.0
22674;DHT22;11504;43.334;21.918;2022-10-15T08:46:31;25.4;100.0
22674;DHT22;11504;43.334;21.918;2022-10-15T08:51:27;25.4;100.0
22674;DHT22;11504;43.334;21.918;2022-10-15T08:56:33;25.3;100.0
22674;DHT22;11504;43.334;21.918;2022-10-15T09:01:32;25.3;100.0
22674;DHT22;11504;43.334;21.918;2022-10-15T09:06:38;25.2;100.0
22674;DHT22;11504;43.334;21.918;2022-10-15T09:11:23;25.2;100.0
22674;DHT22;11504;43.334;21.918;2022-10-15T09:16:45;25.1;100.0
22674;DHT22;11504;43.334;21.918;2022-10-15T09:21:29;25.1;100.0
22674;DHT22;11504;43.334;21.918;2022-10-15T09:26:21;25.4;100.0
22674;DHT22;11504;43.334;21.918;2022-10-15T09:31:34;25.4;100.0
22674;DHT22;11504;43.334;21.918;2022-10-15T09:36:39;25.7;100.0
22674;DHT22;11504;43.334;21.918;2022-10-15T09:41:48;25.7;100.0
22674;DHT22;11504;43.334;21.918;2022-10-15T09:47:22;25.8;100.0
22674;DHT22;11504;43.334;21.918;2022-10-15T09:52:15;26.0;100.0
22674;DHT22;11504;43.334;21.918;2022-10-15T09:57:51;26.0;100.0
22674;DHT22;11504;43.334;21.918;2022-10-15T10:03:03;25.9;100.0
22674;DHT22;11504;43.334;21.918;2022-10-15T10:08:06;25.9;100.0
22674;DHT22;11504;43.334;21.918;2022-10-15T10:12:53;25.8;100.0
22674;DHT22;11504;43.334;21.918;2022-10-15T10:17:32;25.8;100.0
22674;DHT22;11504;43.334;21.918;2022-10-15T10:22:14;25.2;100.0
22674;DHT22;11504;43.334;21.918;2022-10-15T10:26:55;25.2;100.0
22674;DHT22;11504;43.334;21.918;2022-10-15T10:31:35;25.2;100.0
22674;DHT22;11504;43.334;21.918;2022-10-15T10:36:24;24.7;100.0
22674;DHT22;11504;43.334;21.918;2022-10-15T10:41:10;24.7;100.0
22674;DHT22;11504;43.334;21.918;2022-10-15T10:45:52;24.0;100.0
22674;DHT22;11504;43.334;21.918;2022-10-15T10:50:40;24.0;100.0
22674;DHT22;11504;43.334;21.918;2022-10-15T10:55:18;23.4;100.0
22674;DHT22;11504;43.334;21.918;2022-10-15T11:00:17;23.4;100.0
22674;DHT22;11504;43.334;21.918;2022-10-15T11:05:23;22.8;100.0
22674;DHT22;11504;43.334;21.918;2022-10-15T11:10:20;22.8;100.0
22674;DHT22;11504;43.334;21.918;2022-10-15T11:15:35;22.2;100.0
22674;DHT22;11504;43.334;21.918;2022-10-15T11:20:49;22.2;100.0
22674;DHT22;11504;43.334;21.918;2022-10-15T11:26:31;21.8;100.0
22674;DHT22;11504;43.334;21.918;2022-10-15T11:31:57;21.8;100.0
22674;DHT22;11504;43.334;21.918;2022-10-15T11:37:28;21.3;100.0
22674;DHT22;11504;43.334;21.918;2022-10-15T11:43:09;21.2;100.0
22674;DHT22;11504;43.334;21.918;2022-10-15T11:49:11;21.2;100.0
22674;DHT22;11504;43.334;21.918;2022-10-15T11:55:00;21.2;100.0
22674;DHT22;11504;43.334;21.918;2022-10-15T12:00:00;21.2;100.0
22674;DHT22;11504;43.334;21.918;2022-10-15T12:05:17;21.2;100.0
22674;DHT22;11504;43.334;21.918;2022-10-15T12:10:31;21.2;100.0
22674;DHT22;11504;43.334;21.918;2022-10-15T12:16:15;21.2;100.0
22674;DHT22;11504;43.334;21.918;2022-10-15T12:21:36;21.2;100.0
22674;DHT22;11504;43.334;21.918;2022-10-15T12:26:41;21.3;100.0
22674;DHT22;11504;43.334;21.918;2022-10-15T12:31:19;21.3;100.0
22674;DHT22;11504;43.334;21.918;2022-10-15T12:36:00;21.4;100.0
22674;DHT22;11504;43.334;21.918;2022-10-15T12:41:04;21.4;100.0
22674;DHT22;11504;43.334;21.918;2022-10-15T12:45:51;21.4;100.0
22674;DHT22;11504;43.334;21.918;2022-10-15T12:50:35;21.4;100.0
22674;DHT22;11504;43.334;21.918;2022-10-15T12:55:21;21.4;100.0
22674;DHT22;11504;43.334;21.918;2022-10-15T13:00:40;21.4;100.0
22674;DHT22;11504;43.334;21.918;2022-10-15T13:05:24;21.4;100.0
22674;DHT22;11504;43.334;21.918;2022-10-15T13:10:17;21.4;100.0
22674;DHT22;11504;43.334;21.918;2022-10-15T13:15:03;21.4;100.0
22674;DHT22;11504;43.334;21.918;2022-10-15T13:19:54;21.4;100.0
22674;DHT22;11504;43.334;21.918;2022-10-15T13:24:43;21.4;100.0
22674;DHT22;11504;43.334;21.918;2022-10-15T13:29:23;21.4;100.0
22674;DHT22;11504;43.334;21.918;2022-10-15T13:34:10;21.4;100.0
22674;DHT22;11504;43.334;21.918;2022-10-15T13:39:23;21.4;100.0
22674;DHT22;11504;43.334;21.918;2022-10-15T13:44:19;21.4;100.0
22674;DHT22;11504;43.334;21.918;2022-10-15T13:49:02;21.4;100.0
22674;DHT22;11504;43.334;21.918;2022-10-15T13:53:49;21.3;100.0
22674;DHT22;11504;43.334;21.918;2022-10-15T13:58:27;21.3;100.0
22674;DHT22;11504;43.334;21.918;2022-10-15T14:03:16;21.2;100.0
22674;DHT22;11504;43.334;21.918;2022-10-15T14:08:00;21.2;100.0
22674;DHT22;11504;43.334;21.918;2022-10-15T14:12:37;21.1;100.0
22674;DHT22;11504;43.334;21.918;2022-10-15T14:17:22;21.1;100.0
22674;DHT22;11504;43.334;21.918;2022-10-15T14:22:03;21.1;100.0
22674;DHT22;11504;43.334;21.918;2022-10-15T14:26:50;20.9;100.0
22674;DHT22;11504;43.334;21.918;2022-10-15T14:31:31;20.9;100.0
22674;DHT22;11504;43.334;21.918;2022-10-15T14:36:26;20.7;100.0
22674;DHT22;11504;43.334;21.918;2022-10-15T14:41:25;20.7;100.0
22674;DHT22;11504;43.334;21.918;2022-10-15T14:46:14;20.5;100.0
22674;DHT22;11504;43.334;21.918;2022-10-15T14:50:56;20.5;100.0
22674;DHT22;11504;43.334;21.918;2022-10-15T14:55:49;20.4;100.0
22674;DHT22;11504;43.334;21.918;2022-10-15T15:00:55;20.4;100.0
22674;DHT22;11504;43.334;21.918;2022-10-15T15:05:44;20.2;100.0
22674;DHT22;11504;43.334;21.918;2022-10-15T15:10:30;20.2;100.0
22674;DHT22;11504;43.334;21.918;2022-10-15T15:15:12;20.0;100.0
22674;DHT22;11504;43.334;21.918;2022-10-15T15:19:57;20.0;100.0
22674;DHT22;11504;43.334;21.918;2022-10-15T15:24:34;19.7;100.0
22674;DHT22;11504;43.334;21.918;2022-10-15T15:29:11;19.7;100.0
22674;DHT22;11504;43.334;21.918;2022-10-15T15:33:48;19.4;100.0
22674;DHT22;11504;43.334;21.918;2022-10-15T15:38:24;19.4;100.0
22674;DHT22;11504;43.334;21.918;2022-10-15T15:43:02;19.1;100.0
22674;DHT22;11504;43.334;21.918;2022-10-15T15:47:39;19.1;100.0
22674;DHT22;11504;43.334;21.918;2022-10-15T15:52:15;18.8;100.0
22674;DHT22;11504;43.334;21.918;2022-10-15T15:56:52;18.8;100.0
22674;DHT22;11504;43.334;21.918;2022-10-15T16:01:28;18.8;100.0
22674;DHT22;11504;43.334;21.918;2022-10-15T16:06:06;18.5;100.0
22674;DHT22;11504;43.334;21.918;2022-10-15T16:10:44;18.5;100.0
22674;DHT22;11504;43.334;21.918;2022-10-15T16:15:21;18.2;100.0
22674;DHT22;11504;43.334;21.918;2022-10-15T16:19:57;18.2;100.0
22674;DHT22;11504;43.334;21.918;2022-10-15T16:24:34;18.0;100.0
22674;DHT22;11504;43.334;21.918;2022-10-15T16:29:11;18.0;100.0
22674;DHT22;11504;43.334;21.918;2022-10-15T16:33:48;17.7;100.0
22674;DHT22;11504;43.334;21.918;2022-10-15T16:38:26;17.7;100.0
22674;DHT22;11504;43.334;21.918;2022-10-15T16:43:03;17.5;100.0
22674;DHT22;11504;43.334;21.918;2022-10-15T16:47:40;17.5;100.0
22674;DHT22;11504;43.334;21.918;2022-10-15T16:52:17;17.5;100.0
22674;DHT22;11504;43.334;21.918;2022-10-15T16:56:53;17.4;100.0
22674;DHT22;11504;43.334;21.918;2022-10-15T17:01:30;17.4;100.0
22674;DHT22;11504;43.334;21.918;2022-10-15T17:06:08;17.3;100.0
22674;DHT22;11504;43.334;21.918;2022-10-15T17:10:52;17.3;100.0
22674;DHT22;11504;43.334;21.918;2022-10-15T17:15:30;17.2;100.0
22674;DHT22;11504;43.334;21.918;2022-10-15T17:20:07;17.2;100.0
22674;DHT22;11504;43.334;21.918;2022-10-15T17:24:47;17.0;100.0
22674;DHT22;11504;43.334;21.918;2022-10-15T17:29:24;17.0;100.0
22674;DHT22;11504;43.334;21.918;2022-10-15T17:34:04;16.8;100.0
22674;DHT22;11504;43.334;21.918;2022-10-15T17:38:48;16.8;100.0
22674;DHT22;11504;43.334;21.918;2022-10-15T17:43:27;16.7;100.0
22674;DHT22;11504;43.334;21.918;2022-10-15T17:48:04;16.7;100.0
22674;DHT22;11504;43.334;21.918;2022-10-15T17:52:41;16.6;100.0
22674;DHT22;11504;43.334;21.918;2022-10-15T17:57:18;16.6;100.0
22674;DHT22;11504;43.334;21.918;2022-10-15T18:01:55;16.6;100.0
22674;DHT22;11504;43.334;21.918;2022-10-15T18:06:32;16.5;100.0
22674;DHT22;11504;43.334;21.918;2022-10-15T18:11:09;16.5;100.0
22674;DHT22;11504;43.334;21.918;2022-10-15T18:15:54;16.4;100.0
22674;DHT22;11504;43.334;21.918;2022-10-15T18:20:31;16.4;100.0
22674;DHT22;11504;43.334;21.918;2022-10-15T18:25:08;16.2;100.0
22674;DHT22;11504;43.334;21.918;2022-10-15T18:29:44;16.2;100.0
22674;DHT22;11504;43.334;21.918;2022-10-15T18:34:21;16.0;100.0
22674;DHT22;11504;43.334;21.918;2022-10-15T18:38:58;16.0;100.0
22674;DHT22;11504;43.334;21.918;2022-10-15T18:43:34;15.9;100.0
22674;DHT22;11504;43.334;21.918;2022-10-15T18:48:11;15.9;100.0
22674;DHT22;11504;43.334;21.918;2022-10-15T18:52:48;15.8;100.0
22674;DHT22;11504;43.334;21.918;2022-10-15T18:57:25;15.8;100.0
22674;DHT22;11504;43.334;21.918;2022-10-15T19:02:02;15.8;100.0
22674;DHT22;11504;43.334;21.918;2022-10-15T19:06:40;15.6;100.0
22674;DHT22;11504;43.334;21.918;2022-10-15T19:11:27;15.6;100.0
22674;DHT22;11504;43.334;21.918;2022-10-15T19:16:06;15.5;100.0
22674;DHT22;11504;43.334;21.918;2022-10-15T19:20:45;15.5;100.0
22674;DHT22;11504;43.334;21.918;2022-10-15T19:25:22;15.4;100.0
22674;DHT22;11504;43.334;21.918;2022-10-15T19:29:59;15.4;100.0
22674;DHT22;11504;43.334;21.918;2022-10-15T19:34:35;15.3;100.0
22674;DHT22;11504;43.334;21.918;2022-10-15T19:39:14;15.3;100.0
22674;DHT22;11504;43.334;21.918;2022-10-15T19:44:00;15.2;100.0
22674;DHT22;11504;43.334;21.918;2022-10-15T19:48:40;15.2;100.0
22674;DHT22;11504;43.334;21.918;2022-10-15T19:53:17;15.1;100.0
22674;DHT22;11504;43.334;21.918;2022-10-15T19:57:54;15.1;100.0
22674;DHT22;11504;43.334;21.918;2022-10-15T20:02:30;15.0;100.0
22674;DHT22;11504;43.334;21.918;2022-10-15T20:07:07;15.0;100.0
22674;DHT22;11504;43.334;21.918;2022-10-15T20:11:44;15.0;100.0
22674;DHT22;11504;43.334;21.918;2022-10-15T20:16:21;14.9;100.0
22674;DHT22;11504;43.334;21.918;2022-10-15T20:20:57;14.9;100.0
22674;DHT22;11504;43.334;21.918;2022-10-15T20:25:36;14.8;100.0
22674;DHT22;11504;43.334;21.918;2022-10-15T20:30:14;14.8;100.0
22674;DHT22;11504;43.334;21.918;2022-10-15T20:34:51;14.7;100.0
22674;DHT22;11504;43.334;21.918;2022-10-15T20:39:28;14.7;100.0
22674;DHT22;11504;43.334;21.918;2022-10-15T20:44:05;14.6;100.0
22674;DHT22;11504;43.334;21.918;2022-10-15T20:48:46;14.6;100.0
22674;DHT22;11504;43.334;21.918;2022-10-15T20:53:24;14.6;100.0
22674;DHT22;11504;43.334;21.918;2022-10-15T20:58:04;14.6;100.0
22674;DHT22;11504;43.334;21.918;2022-10-15T21:02:41;14.6;100.0
22674;DHT22;11504;43.334;21.918;2022-10-15T21:07:17;14.6;100.0
22674;DHT22;11504;43.334;21.918;2022-10-15T21:11:54;14.6;100.0
22674;DHT22;11504;43.334;21.918;2022-10-15T21:16:30;14.5;100.0
22674;DHT22;11504;43.334;21.918;2022-10-15T21:21:09;14.5;100.0
22674;DHT22;11504;43.334;21.918;2022-10-15T21:25:49;14.4;100.0
22674;DHT22;11504;43.334;21.918;2022-10-15T21:30:26;14.4;100.0
22674;DHT22;11504;43.334;21.918;2022-10-15T21:35:03;14.4;100.0
22674;DHT22;11504;43.334;21.918;2022-10-15T21:39:44;14.4;100.0
22674;DHT22;11504;43.334;21.918;2022-10-15T21:44:20;14.3;100.0
22674;DHT22;11504;43.334;21.918;2022-10-15T21:48:58;14.3;100.0
22674;DHT22;11504;43.334;21.918;2022-10-15T21:53:37;14.2;100.0
22674;DHT22;11504;43.334;21.918;2022-10-15T21:58:13;14.2;100.0
22674;DHT22;11504;43.334;21.918;2022-10-15T22:02:50;14.0;100.0
22674;DHT22;11504;43.334;21.918;2022-10-15T22:07:26;14.0;100.0
22674;DHT22;11504;43.334;21.918;2022-10-15T22:12:03;14.0;100.0
22674;DHT22;11504;43.334;21.918;2022-10-15T22:16:41;13.8;100.0
22674;DHT22;11504;43.334;21.918;2022-10-15T22:21:20;13.8;100.0
22674;DHT22;11504;43.334;21.918;2022-10-15T22:26:06;13.7;100.0
22674;DHT22;11504;43.334;21.918;2022-10-15T22:30:43;13.7;100.0
22674;DHT22;11504;43.334;21.918;2022-10-15T22:35:20;13.6;100.0
22674;DHT22;11504;43.334;21.918;2022-10-15T22:39:57;13.6;100.0
22674;DHT22;11504;43.334;21.918;2022-10-15T22:44:33;13.6;100.0
22674;DHT22;11504;43.334;21.918;2022-10-15T22:49:12;13.6;100.0
22674;DHT22;11504;43.334;21.918;2022-10-15T22:53:56;13.5;100.0
22674;DHT22;11504;43.334;21.918;2022-10-15T22:58:36;13.5;100.0
22674;DHT22;11504;43.334;21.918;2022-10-15T23:03:14;13.4;100.0
22674;DHT22;11504;43.334;21.918;2022-10-15T23:07:51;13.4;100.0
22674;DHT22;11504;43.334;21.918;2022-10-15T23:12:28;13.4;100.0
22674;DHT22;11504;43.334;21.918;2022-10-15T23:17:05;13.4;100.0
22674;DHT22;11504;43.334;21.918;2022-10-15T23:21:43;13.4;100.0
22674;DHT22;11504;43.334;21.918;2022-10-15T23:26:26;13.2;100.0
22674;DHT22;11504;43.334;21.918;2022-10-15T23:31:04;13.2;100.0
22674;DHT22;11504;43.334;21.918;2022-10-15T23:35:41;13.1;100.0
22674;DHT22;11504;43.334;21.918;2022-10-15T23:40:17;13.1;100.0
22674;DHT22;11504;43.334;21.918;2022-10-15T23:44:53;13.0;100.0
22674;DHT22;11504;43.334;21.918;2022-10-15T23:49:30;13.0;100.0
22674;DHT22;11504;43.334;21.918;2022-10-15T23:54:12;12.8;100.0
22674;DHT22;11504;43.334;21.918;2022-10-15T23:58:54;12.8;100.0
